Time;durP1;ratioP1;P1;durP2;ratioP2;P2;SDS_P1;SDS_P2;PMS_P1;PMS_P2;Temp;Humidity;BMP_temperature;BMP_pressure;BME280_temperature;BME280_humidity;BME280_pressure;Samples;Min_cycle;Max_cycle;Signal;HPM_P1;HPM_P2
2022/01/31 00:02:22;;;;;;;24.88;4.32;;;;;;;0.38;83.23;95830.03;4999206;28;20072;-73
2022/01/31 00:04:47;;;;;;;22.88;4.80;;;;;;;0.36;83.47;95811.31;4986410;28;20038;-73
2022/01/31 00:07:13;;;;;;;15.88;4.15;;;;;;;0.38;83.59;95793.78;4989475;28;20042;-73
2022/01/31 00:09:44;;;;;;;17.65;4.50;;;;;;;0.41;83.49;95780.44;4990602;28;20038;-73
2022/01/31 00:12:17;;;;;;;18.65;3.80;;;;;;;0.30;83.41;95765.47;4991314;28;20038;-73
2022/01/31 00:14:45;;;;;;;12.30;3.67;;;;;;;0.29;83.49;95763.91;4990504;28;20049;-73
2022/01/31 00:17:13;;;;;;;16.63;4.38;;;;;;;-0.02;85.24;95758.28;4990468;28;20523;-73
2022/01/31 00:19:40;;;;;;;17.98;4.50;;;;;;;-0.11;85.23;95756.09;4990161;28;20058;-73
2022/01/31 00:22:08;;;;;;;10.32;4.00;;;;;;;0.16;85.24;95749.94;4990075;28;20042;-73
2022/01/31 00:24:34;;;;;;;23.55;4.30;;;;;;;0.17;83.83;95746.38;4990398;28;20050;-73
2022/01/31 00:27:01;;;;;;;14.10;3.90;;;;;;;0.02;86.73;95747.56;4990009;28;20501;-73
2022/01/31 00:29:27;;;;;;;10.98;3.70;;;;;;;-0.09;86.13;95741.16;4990506;28;20462;-74
2022/01/31 00:31:52;;;;;;;15.70;3.28;;;;;;;-0.14;86.44;95728.00;4990748;28;20046;-74
2022/01/31 00:34:18;;;;;;;12.95;3.38;;;;;;;0.16;85.58;95731.84;4989580;28;20129;-74
2022/01/31 00:36:44;;;;;;;14.35;3.83;;;;;;;0.19;85.40;95737.59;4990050;28;20101;-73
2022/01/31 00:39:10;;;;;;;19.92;3.85;;;;;;;0.15;86.58;95732.81;4990436;28;20444;-73
2022/01/31 00:41:35;;;;;;;15.70;3.75;;;;;;;0.29;85.00;95727.66;4990244;28;20042;-73
2022/01/31 00:44:13;;;;;;;14.35;3.17;;;;;;;0.45;84.80;95727.25;4989252;28;20042;-73
2022/01/31 00:46:42;;;;;;;16.13;3.50;;;;;;;0.42;84.70;95712.13;4992674;28;20042;-74
2022/01/31 00:49:22;;;;;;;16.50;3.67;;;;;;;0.33;85.11;95702.94;4979154;28;20046;-74
2022/01/31 00:51:48;;;;;;;11.52;3.50;;;;;;;0.31;86.04;95699.78;4990547;28;20130;-73
2022/01/31 00:54:14;;;;;;;15.77;3.85;;;;;;;0.28;85.82;95689.81;4987910;28;20074;-73
2022/01/31 00:56:39;;;;;;;10.43;3.30;;;;;;;0.22;86.95;95696.59;4990032;28;20042;-73
2022/01/31 00:59:05;;;;;;;10.82;3.45;;;;;;;0.22;86.47;95680.28;4990576;28;20050;-73
2022/01/31 01:01:30;;;;;;;16.98;3.95;;;;;;;0.12;87.36;95671.09;4988620;28;20491;-74
2022/01/31 01:03:56;;;;;;;15.48;3.95;;;;;;;-0.19;90.02;95664.72;4996240;28;20038;-74
2022/01/31 01:06:21;;;;;;;10.02;3.55;;;;;;;-0.30;91.29;95674.84;4989090;28;20121;-74
2022/01/31 01:08:47;;;;;;;17.95;4.20;;;;;;;-0.45;91.01;95670.63;4988720;28;20129;-73
2022/01/31 01:11:12;;;;;;;10.73;3.35;;;;;;;-0.30;91.25;95674.84;4989805;28;20075;-73
2022/01/31 01:13:38;;;;;;;13.25;3.25;;;;;;;-0.08;89.81;95665.94;4990157;28;20042;-74
2022/01/31 01:16:04;;;;;;;16.48;3.88;;;;;;;0.04;89.41;95667.94;4989568;28;20046;-74
2022/01/31 01:18:29;;;;;;;10.65;3.50;;;;;;;0.01;89.00;95666.53;4988783;28;20038;-73
2022/01/31 01:20:55;;;;;;;15.48;3.65;;;;;;;0.16;87.35;95661.16;4989543;28;20049;-73
2022/01/31 01:23:20;;;;;;;9.10;3.03;;;;;;;0.20;87.83;95646.03;4989877;28;20046;-73
2022/01/31 01:25:47;;;;;;;14.23;3.60;;;;;;;0.07;88.57;95652.81;4988089;28;20397;-73
2022/01/31 01:28:13;;;;;;;13.40;3.67;;;;;;;0.14;88.39;95638.06;4989052;28;20042;-73
2022/01/31 01:30:39;;;;;;;15.85;4.05;;;;;;;0.13;88.03;95639.06;4989981;28;20046;-74
2022/01/31 01:33:12;;;;;;;18.90;4.20;;;;;;;0.05;88.93;95639.25;4989948;28;20547;-73
2022/01/31 01:35:39;;;;;;;9.50;3.72;;;;;;;0.27;87.65;95631.28;4988510;28;20042;-73
2022/01/31 01:38:07;;;;;;;12.48;4.05;;;;;;;0.28;87.38;95632.88;4989037;28;20042;-73
2022/01/31 01:40:35;;;;;;;9.65;3.70;;;;;;;0.11;88.44;95633.28;4989228;28;20613;-73
2022/01/31 01:43:00;;;;;;;14.90;4.07;;;;;;;0.23;88.21;95625.72;4989434;28;20042;-73
2022/01/31 01:45:26;;;;;;;13.07;3.55;;;;;;;0.29;87.90;95618.94;4988392;28;20061;-73
2022/01/31 01:47:51;;;;;;;11.15;3.83;;;;;;;0.41;87.48;95617.31;4989924;28;20408;-73
2022/01/31 01:50:18;;;;;;;20.45;3.85;;;;;;;0.48;87.08;95605.16;4988274;28;20113;-73
2022/01/31 01:52:43;;;;;;;16.52;3.80;;;;;;;0.51;87.00;95586.63;4989111;28;20108;-73
2022/01/31 01:55:09;;;;;;;10.93;3.15;;;;;;;0.55;87.20;95570.66;4988962;28;20060;-74
2022/01/31 01:57:35;;;;;;;11.27;3.10;;;;;;;0.56;87.01;95572.25;4991134;28;20117;-74
2022/01/31 02:00:00;;;;;;;12.30;3.45;;;;;;;0.55;86.68;95560.31;4992622;28;20149;-74
2022/01/31 02:02:26;;;;;;;9.40;3.42;;;;;;;0.62;86.25;95563.69;4997602;28;20416;-73
2022/01/31 02:04:52;;;;;;;11.10;3.28;;;;;;;0.62;86.45;95556.72;4996019;28;20397;-73
2022/01/31 02:07:19;;;;;;;10.65;3.20;;;;;;;0.63;87.09;95526.41;4995571;28;20050;-74
2022/01/31 02:09:52;;;;;;;10.02;3.08;;;;;;;0.63;86.52;95508.28;4988406;28;20540;-73
2022/01/31 02:12:18;;;;;;;23.08;3.92;;;;;;;0.67;86.00;95504.28;4989489;28;20527;-73
2022/01/31 02:14:44;;;;;;;11.90;3.42;;;;;;;0.64;85.47;95502.13;4988888;28;20050;-74
2022/01/31 02:17:09;;;;;;;15.65;3.65;;;;;;;0.61;86.71;95502.53;4991007;28;20523;-74
2022/01/31 02:19:35;;;;;;;12.80;3.40;;;;;;;0.54;86.80;95486.22;4994898;28;20173;-74
2022/01/31 02:22:01;;;;;;;11.80;3.60;;;;;;;0.52;87.16;95494.22;4998806;28;20038;-74
2022/01/31 02:24:28;;;;;;;14.82;3.58;;;;;;;0.38;88.35;95503.81;5004877;28;20454;-73
2022/01/31 02:26:53;;;;;;;11.93;3.63;;;;;;;0.32;88.05;95496.88;4998937;28;20074;-73
2022/01/31 02:29:19;;;;;;;10.27;3.50;;;;;;;0.27;88.74;95491.50;4993193;28;20046;-73
2022/01/31 02:31:47;;;;;;;21.63;3.85;;;;;;;0.56;87.25;95494.56;4992914;28;20492;-74
2022/01/31 02:34:13;;;;;;;11.85;3.90;;;;;;;0.69;86.84;95479.00;4991303;28;20070;-73
2022/01/31 02:36:40;;;;;;;15.45;3.83;;;;;;;0.74;85.92;95466.19;4992332;28;20416;-73
2022/01/31 02:39:06;;;;;;;12.43;3.45;;;;;;;0.70;85.97;95465.00;4992542;28;20050;-73
2022/01/31 02:41:39;;;;;;;7.28;3.13;;;;;;;0.67;86.12;95455.06;5000507;28;20046;-74
2022/01/31 02:44:09;;;;;;;14.23;3.55;;;;;;;0.66;86.47;95450.88;4992577;28;20046;-73
2022/01/31 02:46:35;;;;;;;10.20;3.35;;;;;;;0.61;86.65;95455.91;5006220;28;20113;-73
2022/01/31 02:49:00;;;;;;;8.93;3.45;;;;;;;0.48;87.36;95447.19;4991963;28;20043;-74
2022/01/31 02:51:30;;;;;;;14.60;3.15;;;;;;;0.31;88.88;95451.28;4992226;28;20108;-74
2022/01/31 02:53:56;;;;;;;11.70;3.30;;;;;;;0.23;88.72;95448.91;4973473;28;20125;-74
2022/01/31 02:56:21;;;;;;;14.23;3.17;;;;;;;0.49;88.01;95430.66;4990899;28;20602;-73
2022/01/31 02:58:47;;;;;;;11.75;3.17;;;;;;;0.46;88.50;95431.09;4995615;28;20038;-73
2022/01/31 03:01:14;;;;;;;14.52;3.55;;;;;;;0.46;88.20;95433.69;5002364;28;20049;-73
2022/01/31 03:03:40;;;;;;;17.02;3.35;;;;;;;0.63;87.43;95413.28;4992346;28;20049;-73
2022/01/31 03:06:06;;;;;;;13.55;3.60;;;;;;;0.48;88.40;95417.94;4997369;28;20111;-73
2022/01/31 03:08:32;;;;;;;22.88;3.55;;;;;;;0.41;89.58;95399.84;4994345;28;20043;-73
2022/01/31 03:10:58;;;;;;;11.82;4.00;;;;;;;0.50;88.33;95398.59;4991381;28;20046;-73
2022/01/31 03:13:23;;;;;;;14.00;3.67;;;;;;;0.74;87.55;95387.69;4992179;28;20057;-73
2022/01/31 03:15:51;;;;;;;14.55;3.80;;;;;;;0.87;86.58;95382.41;4992412;28;20053;-73
2022/01/31 03:18:17;;;;;;;14.98;3.63;;;;;;;0.92;86.07;95366.22;4991348;28;20397;-73
2022/01/31 03:20:43;;;;;;;9.02;3.10;;;;;;;0.89;86.30;95364.06;4999686;28;20045;-74
2022/01/31 03:23:08;;;;;;;11.13;3.38;;;;;;;0.79;86.66;95370.53;4991757;28;20151;-73
2022/01/31 03:25:34;;;;;;;13.15;3.30;;;;;;;0.68;87.23;95358.25;5001682;28;20126;-73
2022/01/31 03:27:59;;;;;;;13.40;3.15;;;;;;;0.77;86.74;95362.16;4994474;28;20081;-73
2022/01/31 03:30:25;;;;;;;9.57;3.05;;;;;;;0.62;86.86;95369.47;4991610;28;20493;-73
2022/01/31 03:32:51;;;;;;;11.75;3.30;;;;;;;0.58;87.35;95369.06;4992104;28;20039;-73
2022/01/31 03:35:18;;;;;;;15.10;3.05;;;;;;;0.69;86.75;95354.66;4990141;28;20042;-73
2022/01/31 03:37:44;;;;;;;12.27;3.83;;;;;;;0.75;87.07;95359.00;4991716;28;20046;-73
2022/01/31 03:40:10;;;;;;;13.35;3.33;;;;;;;0.63;87.39;95356.28;5000825;28;20091;-73
2022/01/31 03:42:38;;;;;;;12.60;3.22;;;;;;;0.68;86.92;95358.25;4992768;28;20034;-73
2022/01/31 03:45:06;;;;;;;9.52;3.25;;;;;;;0.71;87.34;95341.50;4999307;28;20539;-73
2022/01/31 03:47:31;;;;;;;9.43;3.00;;;;;;;0.66;87.38;95323.97;5002595;28;20042;-73
2022/01/31 03:49:57;;;;;;;13.82;3.30;;;;;;;0.74;86.99;95321.13;4991055;28;20141;-73
2022/01/31 03:52:23;;;;;;;19.33;3.60;;;;;;;0.74;87.09;95310.78;4991367;28;20042;-73
2022/01/31 03:54:48;;;;;;;14.27;3.30;;;;;;;0.92;85.75;95301.44;4991626;28;20038;-73
2022/01/31 03:57:14;;;;;;;17.02;3.20;;;;;;;0.89;86.35;95296.69;4987490;28;20089;-74
2022/01/31 03:59:40;;;;;;;12.18;3.50;;;;;;;0.91;86.06;95284.34;4992937;28;20045;-74
2022/01/31 04:02:07;;;;;;;11.82;3.15;;;;;;;0.88;85.94;95285.56;4999552;28;20563;-74
2022/01/31 04:04:33;;;;;;;11.00;4.13;;;;;;;0.68;86.95;95281.31;4990188;28;20047;-74
2022/01/31 04:06:59;;;;;;;11.88;3.22;;;;;;;0.71;87.32;95280.13;4990582;28;20065;-74
2022/01/31 04:09:26;;;;;;;15.00;3.47;;;;;;;0.76;87.03;95272.50;4990411;28;20046;-74
2022/01/31 04:11:52;;;;;;;11.52;2.80;;;;;;;0.90;85.93;95251.66;4986530;28;20496;-74
2022/01/31 04:14:17;;;;;;;8.57;3.47;;;;;;;0.90;86.29;95229.13;4978703;28;20046;-73
2022/01/31 04:16:42;;;;;;;6.78;2.78;;;;;;;0.86;86.07;95218.41;4990004;28;20431;-73
2022/01/31 04:19:08;;;;;;;10.10;3.08;;;;;;;0.81;86.39;95228.59;4978131;28;20038;-73
2022/01/31 04:21:34;;;;;;;11.38;3.47;;;;;;;0.77;86.57;95227.44;5000556;28;20075;-73
2022/01/31 04:23:59;;;;;;;10.40;2.90;;;;;;;0.78;86.44;95221.28;5001962;28;20130;-73
2022/01/31 04:26:33;;;;;;;26.00;3.63;;;;;;;0.79;86.64;95211.69;5002912;28;20042;-73
2022/01/31 04:29:08;;;;;;;18.52;3.25;;;;;;;0.74;86.77;95201.97;4989777;28;20046;-74
2022/01/31 04:31:39;;;;;;;11.05;3.17;;;;;;;0.74;87.38;95194.22;4990733;28;20073;-73
2022/01/31 04:34:04;;;;;;;16.75;2.90;;;;;;;0.78;86.29;95192.78;4990414;28;20104;-73
2022/01/31 04:36:30;;;;;;;14.80;3.05;;;;;;;0.75;86.76;95177.66;4988877;28;20482;-73
2022/01/31 04:38:56;;;;;;;9.05;2.30;;;;;;;0.72;86.75;95178.09;4989602;28;20116;-73
2022/01/31 04:41:21;;;;;;;11.93;3.00;;;;;;;0.71;86.50;95175.72;4998775;28;20042;-74
2022/01/31 04:43:49;;;;;;;8.52;3.40;;;;;;;0.69;87.25;95183.72;5004667;28;20786;-73
2022/01/31 04:46:14;;;;;;;16.40;3.08;;;;;;;0.60;87.36;95179.81;4997208;28;20510;-74
2022/01/31 04:48:42;;;;;;;14.23;3.00;;;;;;;0.66;87.77;95173.75;5001344;28;20042;-73
2022/01/31 04:51:08;;;;;;;18.15;3.50;;;;;;;0.74;87.46;95155.34;4990232;28;20042;-73
2022/01/31 04:53:34;;;;;;;8.43;3.03;;;;;;;0.76;87.23;95142.19;4990163;28;20435;-73
2022/01/31 04:55:59;;;;;;;7.53;2.67;;;;;;;0.81;87.20;95114.63;4989923;28;20061;-74
2022/01/31 04:58:25;;;;;;;12.77;3.47;;;;;;;0.77;87.28;95097.94;4988511;28;20117;-73
2022/01/31 05:00:51;;;;;;;11.82;3.15;;;;;;;0.71;87.41;95087.66;4989812;28;20053;-74
2022/01/31 05:03:19;;;;;;;8.32;2.72;;;;;;;0.68;87.38;95078.53;4995621;28;20444;-73
2022/01/31 05:05:45;;;;;;;10.38;3.20;;;;;;;0.69;87.62;95090.47;4994327;28;20599;-73
2022/01/31 05:08:12;;;;;;;11.18;3.05;;;;;;;0.56;88.31;95106.16;4997407;28;20080;-73
2022/01/31 05:10:43;;;;;;;11.30;3.30;;;;;;;0.46;89.22;95112.63;4991821;28;20038;-73
2022/01/31 05:13:10;;;;;;;13.15;3.38;;;;;;;0.58;88.80;95109.31;4989997;28;20035;-73
2022/01/31 05:15:35;;;;;;;10.65;3.28;;;;;;;0.75;88.09;95109.50;4988978;28;20047;-73
2022/01/31 05:18:01;;;;;;;11.50;2.95;;;;;;;0.86;87.46;95112.19;4989131;28;20105;-73
2022/01/31 05:20:26;;;;;;;10.13;3.30;;;;;;;0.95;87.48;95098.91;4989475;28;20050;-74
2022/01/31 05:22:52;;;;;;;15.98;3.55;;;;;;;0.92;87.44;95081.22;4989930;28;20035;-73
2022/01/31 05:25:17;;;;;;;11.52;3.28;;;;;;;0.95;87.58;95073.81;5002457;28;20412;-73
2022/01/31 05:27:43;;;;;;;15.30;3.47;;;;;;;0.94;87.61;95061.09;4989164;28;20117;-73
2022/01/31 05:30:09;;;;;;;14.68;3.60;;;;;;;0.92;88.19;95057.91;4996789;28;20044;-73
2022/01/31 05:32:34;;;;;;;19.38;3.70;;;;;;;0.95;88.21;95041.91;4991197;28;20447;-73
2022/01/31 05:35:01;;;;;;;16.85;4.10;;;;;;;0.93;87.87;95049.13;4988428;28;20046;-73
2022/01/31 05:37:27;;;;;;;19.13;4.30;;;;;;;0.74;89.06;95041.38;4974760;28;20043;-73
2022/01/31 05:39:53;;;;;;;17.20;3.47;;;;;;;0.86;88.64;95044.84;4988826;28;20050;-73
2022/01/31 05:42:18;;;;;;;16.00;3.85;;;;;;;0.80;89.37;95061.22;4990360;28;20412;-73
2022/01/31 05:44:47;;;;;;;13.60;4.03;;;;;;;0.78;89.55;95050.31;4997866;28;20046;-73
2022/01/31 05:47:14;;;;;;;9.98;3.78;;;;;;;0.83;89.68;95055.63;4987946;28;20050;-73
2022/01/31 05:49:39;;;;;;;14.38;4.68;;;;;;;0.81;90.19;95052.47;4991004;28;20489;-73
2022/01/31 05:52:07;;;;;;;17.48;4.43;;;;;;;0.84;90.02;95056.41;5007660;28;20045;-73
2022/01/31 05:54:35;;;;;;;18.92;4.47;;;;;;;0.97;90.07;95058.06;4992027;28;20508;-73
2022/01/31 05:57:02;;;;;;;12.57;4.10;;;;;;;1.07;89.85;95047.16;4988868;28;20039;-73
2022/01/31 05:59:27;;;;;;;11.02;4.70;;;;;;;1.10;89.80;95055.28;4979610;28;20054;-73
2022/01/31 06:01:53;;;;;;;15.95;5.13;;;;;;;1.08;90.28;95057.31;4980625;28;20047;-73
2022/01/31 06:04:19;;;;;;;13.02;4.95;;;;;;;1.09;90.29;95047.72;4998820;28;20121;-73
2022/01/31 06:06:44;;;;;;;14.80;4.65;;;;;;;1.01;90.63;95056.59;4982378;28;20688;-73
2022/01/31 06:09:10;;;;;;;10.25;5.05;;;;;;;1.17;90.34;95043.00;4985779;28;20066;-74
2022/01/31 06:11:36;;;;;;;15.73;4.78;;;;;;;1.25;90.22;95061.84;4989682;28;20070;-74
2022/01/31 06:14:07;;;;;;;14.15;4.97;;;;;;;1.34;89.14;95061.31;4994610;28;20457;-74
2022/01/31 06:16:33;;;;;;;12.48;5.53;;;;;;;1.32;89.22;95052.16;4996151;28;20042;-73
2022/01/31 06:18:58;;;;;;;12.52;4.40;;;;;;;1.36;88.86;95053.31;4987740;28;20042;-73
2022/01/31 06:21:24;;;;;;;13.25;5.28;;;;;;;1.31;88.70;95045.44;4989761;28;20085;-74
2022/01/31 06:23:50;;;;;;;10.40;4.93;;;;;;;1.27;88.86;95039.09;4992331;28;20048;-74
2022/01/31 06:26:16;;;;;;;11.60;4.80;;;;;;;1.31;88.58;95019.50;4993853;28;20042;-73
2022/01/31 06:28:41;;;;;;;11.13;4.10;;;;;;;1.39;86.51;95016.56;4988747;28;20045;-73
2022/01/31 06:31:07;;;;;;;11.75;4.28;;;;;;;1.30;86.06;95017.91;4989643;28;20073;-74
2022/01/31 06:33:32;;;;;;;16.38;4.40;;;;;;;1.46;84.41;95006.09;4987976;28;20132;-74
2022/01/31 06:35:59;;;;;;;12.50;4.25;;;;;;;1.33;84.39;95009.69;4994157;28;20042;-73
2022/01/31 06:38:25;;;;;;;10.38;2.95;;;;;;;1.36;83.32;95001.47;4997350;28;20121;-73
2022/01/31 06:40:51;;;;;;;14.10;4.30;;;;;;;1.32;82.82;95005.50;4988963;28;20047;-74
2022/01/31 06:43:17;;;;;;;8.15;3.10;;;;;;;1.48;81.69;95004.88;4988773;28;20049;-73
2022/01/31 06:45:43;;;;;;;19.90;3.92;;;;;;;1.40;81.93;94996.63;4988926;28;20046;-73
2022/01/31 06:48:09;;;;;;;11.30;3.65;;;;;;;1.42;81.47;94974.63;4988871;28;20065;-73
2022/01/31 06:50:35;;;;;;;12.00;3.78;;;;;;;1.37;81.55;94977.13;4992031;28;20050;-73
2022/01/31 06:53:02;;;;;;;22.20;4.00;;;;;;;1.37;80.97;94977.13;4988684;28;20043;-74
2022/01/31 06:55:29;;;;;;;9.85;2.78;;;;;;;1.34;80.05;94972.38;5000090;28;20507;-73
2022/01/31 06:57:55;;;;;;;6.90;2.45;;;;;;;1.51;79.64;94978.47;4987838;28;20050;-72
2022/01/31 07:00:21;;;;;;;14.38;3.22;;;;;;;1.44;81.19;94977.81;4988958;28;20039;-73
2022/01/31 07:02:49;;;;;;;7.88;2.97;;;;;;;1.49;80.46;94957.16;4987519;28;20042;-73
2022/01/31 07:05:16;;;;;;;9.30;3.28;;;;;;;1.56;79.46;94955.25;5004354;28;20110;-73
2022/01/31 07:07:43;;;;;;;8.77;2.90;;;;;;;1.60;79.08;94960.00;4983311;28;20043;-72
2022/01/31 07:10:09;;;;;;;10.02;2.70;;;;;;;1.59;79.45;94958.41;4991179;28;20045;-72
2022/01/31 07:12:38;;;;;;;13.23;3.10;;;;;;;1.58;80.28;94959.41;4991972;28;20046;-73
2022/01/31 07:15:09;;;;;;;4.63;2.38;;;;;;;1.53;80.57;94955.69;4990425;28;20038;-72
2022/01/31 07:17:36;;;;;;;9.45;2.67;;;;;;;1.59;80.95;94948.03;4989593;28;20042;-73
2022/01/31 07:20:04;;;;;;;6.45;2.58;;;;;;;1.61;81.40;94936.44;4991495;28;20035;-72
2022/01/31 07:22:35;;;;;;;8.63;3.00;;;;;;;1.60;82.28;94928.88;4991351;28;20042;-74
2022/01/31 07:25:20;;;;;;;7.78;2.75;;;;;;;1.61;82.74;94931.25;4990851;28;20046;-74
2022/01/31 07:27:46;;;;;;;8.82;3.10;;;;;;;1.61;82.84;94930.44;4988490;28;20035;-73
2022/01/31 07:30:12;;;;;;;5.60;1.85;;;;;;;1.66;83.41;94912.41;5002785;28;20045;-74
2022/01/31 07:32:41;;;;;;;11.13;2.63;;;;;;;1.62;83.90;94911.28;4985608;28;20050;-74
2022/01/31 07:35:09;;;;;;;10.25;2.90;;;;;;;1.63;84.54;94897.28;4986447;28;20142;-73
2022/01/31 07:37:35;;;;;;;8.82;2.90;;;;;;;1.71;84.17;94894.31;4987441;28;20046;-72
2022/01/31 07:40:03;;;;;;;5.63;2.63;;;;;;;1.71;84.44;94884.75;4991147;28;20067;-73
2022/01/31 07:42:28;;;;;;;7.05;2.83;;;;;;;1.77;84.00;94872.69;4991934;28;20054;-72
2022/01/31 07:44:54;;;;;;;9.35;3.17;;;;;;;1.75;84.60;94864.31;4991620;28;20061;-73
2022/01/31 07:47:20;;;;;;;7.25;2.60;;;;;;;1.92;83.64;94838.44;4991243;28;20456;-73
2022/01/31 07:49:45;;;;;;;10.43;2.80;;;;;;;1.92;83.54;94822.09;4991444;28;20105;-72
2022/01/31 07:52:14;;;;;;;11.70;2.58;;;;;;;1.93;84.29;94829.66;4990600;28;20042;-73
2022/01/31 07:54:40;;;;;;;4.53;2.40;;;;;;;2.02;83.95;94819.69;4989837;28;20046;-72
2022/01/31 07:57:05;;;;;;;5.40;2.45;;;;;;;2.09;83.20;94838.50;4977523;28;20064;-73
2022/01/31 07:59:31;;;;;;;12.93;2.70;;;;;;;2.05;83.76;94827.81;4975804;28;20053;-73
2022/01/31 08:01:56;;;;;;;8.25;2.80;;;;;;;2.13;83.16;94818.84;4987849;28;20062;-73
2022/01/31 08:04:22;;;;;;;5.15;2.15;;;;;;;2.14;83.04;94810.06;4985840;28;20048;-73
2022/01/31 08:06:47;;;;;;;7.07;2.50;;;;;;;2.10;83.18;94795.97;4987422;28;20046;-73
2022/01/31 08:09:13;;;;;;;10.00;2.80;;;;;;;2.19;83.33;94791.19;4980951;28;20527;-77
2022/01/31 08:11:39;;;;;;;7.07;2.85;;;;;;;2.27;82.10;94782.22;4991588;28;20039;-74
2022/01/31 08:14:09;;;;;;;8.90;2.78;;;;;;;2.34;81.83;94782.84;4988870;28;20043;-74
2022/01/31 08:16:37;;;;;;;7.35;2.75;;;;;;;2.37;81.59;94771.97;4989532;28;20122;-73
2022/01/31 08:19:07;;;;;;;6.35;2.42;;;;;;;2.43;81.37;94781.44;4984222;28;20038;-75
2022/01/31 08:21:33;;;;;;;6.95;2.55;;;;;;;2.58;80.56;94773.09;4992929;28;20054;-75
2022/01/31 08:23:59;;;;;;;5.50;2.50;;;;;;;2.52;80.78;94769.63;4995983;28;20038;-76
2022/01/31 08:26:24;;;;;;;8.13;2.55;;;;;;;2.52;80.52;94761.84;4991384;28;20472;-74
2022/01/31 08:28:56;;;;;;;4.80;2.33;;;;;;;2.71;79.92;94756.41;4990317;28;20042;-75
2022/01/31 08:36:26;;;;;;;4.25;2.10;;;;;;;2.66;81.92;94753.72;4986671;28;20046;-73
2022/01/31 08:38:52;;;;;;;9.45;2.53;;;;;;;2.64;82.75;94761.75;4988829;28;20053;-73
2022/01/31 08:41:18;;;;;;;6.13;2.33;;;;;;;2.58;83.17;94763.47;4988643;28;20084;-73
2022/01/31 08:43:44;;;;;;;5.90;2.60;;;;;;;2.49;85.54;94749.34;4992501;28;20121;-73
2022/01/31 08:46:12;;;;;;;5.05;2.25;;;;;;;2.37;86.91;94761.59;4998078;28;20130;-73
2022/01/31 08:48:38;;;;;;;11.52;3.00;;;;;;;2.23;89.41;94758.53;4988732;28;20070;-73
2022/01/31 08:51:06;;;;;;;5.47;2.40;;;;;;;2.21;89.40;94758.78;4988611;28;20058;-73
2022/01/31 08:53:33;;;;;;;7.75;3.08;;;;;;;2.17;91.83;94747.28;4989944;28;20072;-73
2022/01/31 08:56:01;;;;;;;8.02;2.75;;;;;;;2.17;92.54;94752.47;4982905;28;20516;-73
2022/01/31 08:58:27;;;;;;;8.00;2.70;;;;;;;2.08;93.27;94744.28;4989364;28;20042;-72
2022/01/31 09:01:04;;;;;;;7.15;2.63;;;;;;;2.07;93.09;94763.47;4993570;28;20103;-72
2022/01/31 09:06:00;;;;;;;7.53;2.63;;;;;;;2.06;94.10;94750.72;4988413;28;20612;-73
2022/01/31 09:08:26;;;;;;;8.00;2.65;;;;;;;1.98;95.54;94738.13;4991283;28;20038;-72
2022/01/31 09:10:51;;;;;;;8.73;3.47;;;;;;;1.89;97.04;94754.06;4991873;28;20045;-72
2022/01/31 09:13:18;;;;;;;4.40;2.38;;;;;;;1.84;96.42;94751.41;4989623;28;20046;-72
2022/01/31 09:15:44;;;;;;;9.95;3.53;;;;;;;1.83;97.96;94751.63;4998158;28;20042;-72
2022/01/31 09:18:09;;;;;;;7.57;3.13;;;;;;;1.80;98.17;94752.09;4974037;28;20038;-73
2022/01/31 09:20:36;;;;;;;5.55;2.80;;;;;;;1.86;96.89;94738.97;4989334;28;20042;-73
2022/01/31 09:23:03;;;;;;;5.78;2.90;;;;;;;1.92;97.47;94720.91;4989032;28;20072;-73
2022/01/31 09:25:29;;;;;;;3.95;2.38;;;;;;;1.96;96.87;94722.00;4988566;28;20046;-73
2022/01/31 09:27:56;;;;;;;9.38;3.53;;;;;;;1.98;96.06;94732.94;4988808;28;20497;-72
2022/01/31 09:30:22;;;;;;;5.93;2.70;;;;;;;2.07;97.60;94728.94;4988189;28;20050;-70
2022/01/31 09:32:48;;;;;;;6.97;3.10;;;;;;;2.23;97.65;94722.97;4989093;28;20045;-70
2022/01/31 09:35:14;;;;;;;6.38;3.00;;;;;;;2.23;95.10;94725.56;4989333;28;20046;-71
2022/01/31 09:37:40;;;;;;;4.30;2.42;;;;;;;2.28;95.84;94721.47;4989533;28;20042;-71
2022/01/31 09:40:07;;;;;;;5.35;2.60;;;;;;;2.28;95.49;94732.63;4984020;28;20046;-71
2022/01/31 09:42:41;;;;;;;8.05;2.70;;;;;;;2.15;96.21;94720.75;4988714;28;20045;-70
2022/01/31 09:45:16;;;;;;;5.30;2.72;;;;;;;2.04;96.79;94716.41;4987945;28;20053;-71
2022/01/31 09:50:26;;;;;;;4.78;2.63;;;;;;;2.02;97.11;94728.84;4985298;28;20061;-73
2022/01/31 09:52:52;;;;;;;7.13;3.08;;;;;;;2.00;97.23;94725.72;4987868;28;20492;-74
2022/01/31 09:55:17;;;;;;;6.65;2.33;;;;;;;2.00;99.00;94731.69;4985177;28;20046;-75
2022/01/31 09:57:43;;;;;;;7.72;2.88;;;;;;;1.90;98.60;94727.09;5003857;28;20066;-74
2022/01/31 10:00:10;;;;;;;9.38;2.83;;;;;;;1.81;100.00;94723.31;4988808;28;20042;-73
2022/01/31 10:02:35;;;;;;;5.82;2.63;;;;;;;1.83;99.22;94736.84;4988630;28;20042;-72
2022/01/31 10:05:01;;;;;;;7.65;2.92;;;;;;;1.87;100.00;94743.16;4987562;28;20081;-74
2022/01/31 10:07:44;;;;;;;8.02;2.78;;;;;;;1.89;100.00;94746.28;4989264;28;20097;-73
2022/01/31 10:10:22;;;;;;;7.15;2.38;;;;;;;1.84;100.00;94735.84;4984919;28;20048;-73
2022/01/31 10:18:08;;;;;;;5.47;2.38;;;;;;;1.90;100.00;94721.91;4988500;28;20046;-78
2022/01/31 10:20:35;;;;;;;7.57;3.17;;;;;;;1.88;100.00;94734.34;4988840;28;20059;-77
2022/01/31 10:23:13;;;;;;;8.07;3.35;;;;;;;1.86;100.00;94736.38;4984225;28;20070;-76
2022/01/31 10:25:39;;;;;;;4.70;2.45;;;;;;;1.95;100.00;94728.22;4989500;28;20508;-73
2022/01/31 10:28:17;;;;;;;4.95;2.70;;;;;;;1.98;99.86;94722.56;4988573;28;20106;-72
2022/01/31 10:30:45;;;;;;;5.55;2.70;;;;;;;1.97;100.00;94737.34;4988663;28;20093;-72
2022/01/31 10:33:12;;;;;;;4.53;2.10;;;;;;;1.96;100.00;94729.81;4986966;28;20042;-72
2022/01/31 10:35:40;;;;;;;3.45;1.83;;;;;;;2.06;100.00;94729.97;4986410;28;20039;-72
2022/01/31 10:38:14;;;;;;;4.22;2.20;;;;;;;2.10;98.32;94730.25;4990025;28;20050;-73
2022/01/31 10:50:38;;;;;;;4.78;2.08;;;;;;;2.25;96.63;94741.69;4985313;28;20570;-73
2022/01/31 10:52:17;;;;;;;4.72;2.22;;;;;;;2.28;95.82;94731.88;4987830;28;20069;-73
2022/01/31 10:54:42;;;;;;;3.45;2.10;;;;;;;2.23;97.09;94710.00;4991288;28;20039;-73
2022/01/31 10:57:21;;;;;;;4.50;2.10;;;;;;;2.11;98.74;94735.22;5000682;28;20046;-72
2022/01/31 10:59:49;;;;;;;5.47;1.70;;;;;;;2.09;99.08;94739.88;4991843;28;20038;-73
2022/01/31 11:02:23;;;;;;;5.75;2.17;;;;;;;1.87;99.83;94739.78;4991827;28;20047;-78
2022/01/31 11:04:49;;;;;;;;;;;;;;;1.81;100.00;94744.09;4988158;28;20520;-72
2022/01/31 11:07:20;;;;;;;3.38;1.90;;;;;;;1.70;100.00;94737.13;4994394;28;19926;-72
2022/01/31 11:09:51;;;;;;;5.68;1.98;;;;;;;1.69;100.00;94730.38;4990727;28;20038;-73
2022/01/31 11:12:22;;;;;;;4.15;1.80;;;;;;;1.63;100.00;94736.50;4999024;28;20046;-75
2022/01/31 11:14:47;;;;;;;3.58;1.88;;;;;;;1.71;100.00;94729.13;5017781;28;20050;-73
2022/01/31 11:17:16;;;;;;;4.13;2.05;;;;;;;1.78;100.00;94723.81;4989917;28;20474;-73
2022/01/31 11:19:44;;;;;;;3.10;1.70;;;;;;;1.87;100.00;94727.56;4989626;28;20034;-73
2022/01/31 11:22:11;;;;;;;7.55;1.90;;;;;;;1.81;99.75;94723.31;4989097;28;20093;-73
2022/01/31 11:24:43;;;;;;;5.35;2.00;;;;;;;1.94;100.00;94727.44;4992911;28;20122;-73
2022/01/31 11:27:13;;;;;;;3.67;1.88;;;;;;;1.98;100.00;94718.16;4989973;28;20045;-73
2022/01/31 11:29:45;;;;;;;2.95;1.65;;;;;;;2.11;100.00;94730.03;4989935;28;20125;-73
2022/01/31 11:32:12;;;;;;;2.75;1.60;;;;;;;2.10;99.74;94720.69;4986445;28;20340;-73
2022/01/31 11:34:39;;;;;;;3.95;2.10;;;;;;;2.06;98.68;94722.19;4992152;28;20068;-77
2022/01/31 11:37:08;;;;;;;4.38;1.70;;;;;;;2.06;100.00;94722.97;5002672;28;20042;-77
2022/01/31 11:39:35;;;;;;;4.57;2.08;;;;;;;2.16;99.17;94730.13;5001112;28;20046;-74
2022/01/31 11:42:02;;;;;;;3.08;1.85;;;;;;;2.38;98.75;94722.41;4991533;28;20424;-75
2022/01/31 11:44:34;;;;;;;6.07;2.00;;;;;;;2.65;97.94;94721.00;5006563;28;20054;-73
2022/01/31 11:47:05;;;;;;;4.50;1.80;;;;;;;2.75;94.49;94737.50;4996974;28;20042;-71
2022/01/31 11:49:50;;;;;;;3.30;1.80;;;;;;;2.92;94.13;94732.28;4989543;28;20074;-73
2022/01/31 11:52:17;;;;;;;4.32;1.50;;;;;;;2.81;95.38;94727.97;4994320;28;20043;-72
2022/01/31 11:55:09;;;;;;;9.45;1.70;;;;;;;2.87;94.38;94719.19;4990899;28;20042;-72
2022/01/31 11:57:37;;;;;;;3.67;1.33;;;;;;;2.80;93.87;94717.81;4991162;28;20065;-73
2022/01/31 12:00:08;;;;;;;1.95;1.35;;;;;;;2.67;94.32;94718.94;5003435;28;20066;-76
2022/01/31 12:02:43;;;;;;;2.22;1.30;;;;;;;2.44;92.39;94725.88;4985996;28;20527;-71